Timeline UpdatesTrip UpdatesNews PostsPvt Posts♥♥Travel TipsAdmin PostsConv PostsFollowed PostsChat RequestsBlog PostsPNR Posts

Disclaimer
Search
 
 
Fri Oct 31, 2014 15:23:28 ISTHomeTrainsΣChainsAtlasPNRForumGalleryNewsFAQTripsMembersLoginFeedback
No Recent News for this Train
Other Trains in the News **new
Latest...
⇐ Return Journey: Train# 59342

59341/Nagda Bina Passenger (UnReserved)

Time-Table HAS CHANGED.
Sep 03 2014 (5:56PM)
Change Departure Station:
Change Arrival Station:
Post a Train Travel TipPost a Train Travel Tip **new
Post a Comment/Question/Picture/VideoPost a Comment/Question/Picture/Video
Pantry/Catering
✕ NO Pantry Car
✕ NO Catering
RSA - Rake Sharing
59307/59354/59353/59318/59346/59345/59341/59342/59317/59306; Entry# 518023
Rake/Coach Composition
Loco
News    PNR    Forum    Time-Table    Availability    Fare Chart    Map    Arr/Dep History    Trips    Gallery    ΣChains    X/O    Timeline    
Travel Time: 2h 44m    10 halts    Distance: 89 km    Avg Speed: 32 km/hr
Type: Passenger
Zone: WR/Western
Departs @ 11:35 (Avg 4m late)
Platform# ???
SMTWTFS
Nagda Junction/NAD 
Arrives @ 14:19 (Avg 10m late)
Platform# ???
SMTWTFS
Tarana Road/TAN 

10 halts. 12 intermediate Stations between Nagda Junction and Tarana Road

Show ALL intermediate Stations  Show Old Time-Table

#TrkCodeStation NameX/OArrivesAvgDepartsAvgHaltPFDay#KmSpeedElevZoneAddress
1/==/NADNagda Junction (4)»  -11:35+4--10.061468mWRNagda, Madhya Pradesh
2/==/BTSDBhatisuda new halt!!  11:41-11:42-1m--16.136482mWRUjjain, Madhya Pradesh
3/==/PPGPiploda Bagla  11:51+1311:52+131m--111.552475mWRPiploda Sagotimata, Madhya Pradesh
4/==/UNLUnhel  12:00+1612:01+161m--118.558484mWRUjjain, Madhya Pradesh
5/==/PSOPalsora MakrawaX  12:10+1312:11+121m--127.252499mWRUjjain, Madhya Pradesh
6/==/ASLAslaoda  12:21+1012:22+101m--135.946489mWRUjjain, Madhya Pradesh
7/==/NKINaikheriX  12:33+1012:34+101m--144.219504mWRUjjain, Madhya Pradesh
8/==/UJNUjjain Junction (8)X  13:10+213:40+130m--155.645492mWRUjjain 456001, Madhya Pradesh
9/==/PLWPingleshwarX  13:52+813:53+81m--164.649509mWRMaksi, Madhya Pradesh
10/==/TJPTajpur (2)  14:01+614:02+61m--171.173528mWRMaksi, Madhya Pradesh
11/==/SVTShivpura  14:10-14:11-1m--180.862499mWRMaksi, Madhya Pradesh
12/==/TANTarana Road•XO  14:19+1014:20+101m--189.111498mWRMaksi, Madhya Pradesh
13/==/MKCMaksi Junction (3)  15:13+015:15+02m--198.677513mWRMakshi, Madhya Pradesh
14|--|SYOSiroliya  15:24 15:23-15:25-1 2m--1108.843462mWCRShajapur, Madhya Pradesh
15|--|CAZChauhani  15:34 15:32-15:35 15:34-1 2m--1113.863478mWCRShajapur, Madhya Pradesh
16|--|SFYShajapurX  15:47 15:46+215:49 15:48+22m--1126.457450mWCRShajapur, Madhya Pradesh
17|--|SFWSarangpur  16:15 16:16+216:17 16:18+22m--1153.065422mWCRSarangpur, Madhya Pradesh
18|--|PQUParhana Mau (1)X  16:29 16:27+516:30 16:29+51 2m11162.756440mWCRNational Highway 3, Madhya Pradesh
19|--|UDKUdyan Kheri (1)  16:44 16:39-16:45 16:40-1m11172.174435mWCRUdankheri, Madhya Pradesh
20|--|PFRPachor Road  16:57 16:51+116:58 16:53+11 2m--1185.770419mWCRPachore, Madhya Pradesh
21|--|BRRGBiyavra Rajgarh  17:24 17:18+217:25 17:20+31 2m--1214.954423mWCRBiaora, Madhya Pradesh
22|--|SFZSinduriya Kachari (2)  17:34 17:31+1617:35 17:33+171 2m21224.877428mWCRGuna, Madhya Pradesh
23|--|CBKChachaura Binaganj (1)  17:54 17:49+1917:55 17:51+231 2m11245.368435mWCRGuna, Madhya Pradesh
24|--|KHRJKumbhraj (1)  18:17 18:11+2118:18 18:13+271 2m11268.073401mWCRManpura, Madhya Pradesh
25|--|RGGRadogarh (1)  18:27 18:23-18:28 18:25-1 2m11280.160417mWCRVijaypur, Madhya Pradesh
26|--|VJPVijay Pur  18:39 18:32+2818:40 18:34+381 2m--1287.010420mWCRVijaipur, Madhya Pradesh
27%=-|RTARuthiyai Junction (2)  19:00 19:05+2219:05 19:10+365m--1292.258414mWCRRuthiyai, Madhya Pradesh
28%==%MUGAMahugara  19:18 19:24+4119:20 19:26+482m--1305.832501mWCRRuthiyai, Madhya Pradesh
29%=-/GUNAGuna Junction (3)  19:35 19:40+3119:45 19:50+3110m21313.277477mWCRJn Point Indore/Gwalior/Bina/Kota, Madhya Pradesh
30/--/MABNMaban  19:52 19:55+5519:53 19:57+551 2m--1319.661501mWCRState Highway 23, Madhya Pradesh
31/--/PGAPagara  20:01 20:04+3:2120:03 20:06+3:202m--1326.764494mWCRGuna, Madhya Pradesh
32/--/PIGTPilighat  20:09 20:12-20:10 20:14-1 2m--1333.068471mWCRGUNA Rd, Madhya Pradesh
33/--/SHDRShadhoragaonX  20:24 20:22-20:25 20:24-1 2m--1342.061504mWCRGuna, Madhya Pradesh
34/--/RIKARatikheda  20:33 20:32-20:35 20:34-2m--1350.154526mWCRGuna, Madhya Pradesh
35/--/ASKNAshok Nagar (2)  20:43 20:42+820:45 20:44+82m--1357.468502mWCRAshoknagar, Madhya Pradesh
36/--/HPKAHinotia Pipalkhera  20:51 20:52-20:52 20:54-1 2m--1366.543460mWCRAshoknagar, Madhya Pradesh
37/--/ORROrrX  20:58 20:59-21:00 21:01-2m--1370.039450mWCRAshoknagar, Madhya Pradesh
38/--/RTWSRahatwas new halt!!  21:08-21:10-2m--1374.579459mWCRRatwas, Madhya Pradesh
39/--/PIAPipraigaon (3)  21:14 21:17-21:16 21:19-2m21383.859451mWCRAshoknagar, Madhya Pradesh
40/--/GVBGuneru Bamori (2)  21:24 21:30-21:26 21:32-2m--1394.763427mWCRAshoknagar, Madhya Pradesh
41/--/MNVMungaoli (2)  21:34 21:40+3821:36 21:42+382m--1403.053403mWCRAshoknagar, Madhya Pradesh
42/--/KXBKanjiya  21:44 21:51-21:46 21:53-2m--1411.082390mWCRMungaoli, Madhya Pradesh
43/--/SRKISemarkheriX  21:50 21:59-21:52 22:01-2m--1419.334412mWCRBina, Madhya Pradesh
44/--/MDVKMahadeokhedi  21:58 22:10-22:00 22:12-2m--1424.46423mWCRBina, Madhya Pradesh
45/--/BINABina Junction (5)  23:25+4-51432.1-414mWCRJn Pt - KATNI/GUNA/ BPL/JHS, Madhya Pradesh
Scroll to Top
Scroll to Bottom